Gallupville, New York
Current Conditions -  °F | °C
As of 3:51 PM on Tuesday 21 Oct 2014 (Local Time) from KALB Reporting Station
Overcast Overcast  
Wind Chill: 55°   Ceiling: 1000
Heat Index: 55°   Visibility: 10mi
Dew Point: 50°   Wind: 5mph
Humidity: 83%   Direction: 360°N
Pressure: 29.92"   Gusts: NA
Location:  42.66°N, 74.23°W
Report Text: KALB 211951Z 36004KT 10SM BKN010 OVC080 13/10 A2992 RMK AO2 SLP131 BKN V SCT OCNL BINOVC T01280100
Loading
Personal Weather Stations






























Interactive Weather Map
Tropical Storm Tracking
New forecast layout! Learn more

10-Day Weather Forecast

Advertisements
Track Severe Weather on mobile